sensor_id;sensor_type;location;lat;lon;timestamp;P1;durP1;ratioP1;P2;durP2;ratioP2
48161;SDS011;33950;48.154;16.316;2023-01-31T00:00:26;12.43;;;4.72;;
48161;SDS011;33950;48.154;16.316;2023-01-31T00:03:12;6.90;;;3.88;;
48161;SDS011;33950;48.154;16.316;2023-01-31T00:06:07;5.75;;;3.47;;
48161;SDS011;33950;48.154;16.316;2023-01-31T00:08:57;6.00;;;3.25;;
48161;SDS011;33950;48.154;16.316;2023-01-31T00:11:44;8.15;;;3.80;;
48161;SDS011;33950;48.154;16.316;2023-01-31T00:14:30;9.32;;;3.92;;
48161;SDS011;33950;48.154;16.316;2023-01-31T00:17:16;8.60;;;3.65;;
48161;SDS011;33950;48.154;16.316;2023-01-31T00:20:02;9.80;;;4.82;;
48161;SDS011;33950;48.154;16.316;2023-01-31T00:22:49;9.38;;;4.50;;
48161;SDS011;33950;48.154;16.316;2023-01-31T00:25:36;11.75;;;5.53;;
48161;SDS011;33950;48.154;16.316;2023-01-31T00:28:23;14.23;;;5.30;;
48161;SDS011;33950;48.154;16.316;2023-01-31T00:31:09;16.85;;;6.10;;
48161;SDS011;33950;48.154;16.316;2023-01-31T00:33:57;12.30;;;5.82;;
48161;SDS011;33950;48.154;16.316;2023-01-31T00:36:43;19.00;;;5.22;;
48161;SDS011;33950;48.154;16.316;2023-01-31T00:39:29;12.25;;;5.50;;
48161;SDS011;33950;48.154;16.316;2023-01-31T00:42:17;12.30;;;5.60;;
48161;SDS011;33950;48.154;16.316;2023-01-31T00:45:03;11.05;;;5.80;;
48161;SDS011;33950;48.154;16.316;2023-01-31T00:47:50;8.85;;;4.93;;
48161;SDS011;33950;48.154;16.316;2023-01-31T00:50:36;12.20;;;5.82;;
48161;SDS011;33950;48.154;16.316;2023-01-31T00:53:22;10.50;;;4.85;;
48161;SDS011;33950;48.154;16.316;2023-01-31T00:56:11;11.82;;;4.95;;
48161;SDS011;33950;48.154;16.316;2023-01-31T00:58:59;8.63;;;3.88;;
48161;SDS011;33950;48.154;16.316;2023-01-31T01:01:48;8.13;;;3.90;;
48161;SDS011;33950;48.154;16.316;2023-01-31T01:04:34;9.68;;;4.95;;
48161;SDS011;33950;48.154;16.316;2023-01-31T01:07:20;9.73;;;3.83;;
48161;SDS011;33950;48.154;16.316;2023-01-31T01:10:07;13.35;;;5.30;;
48161;SDS011;33950;48.154;16.316;2023-01-31T01:12:54;12.30;;;4.90;;
48161;SDS011;33950;48.154;16.316;2023-01-31T01:15:41;8.98;;;3.70;;
48161;SDS011;33950;48.154;16.316;2023-01-31T01:18:27;8.38;;;3.63;;
48161;SDS011;33950;48.154;16.316;2023-01-31T01:21:14;8.40;;;3.65;;
48161;SDS011;33950;48.154;16.316;2023-01-31T01:24:02;13.75;;;4.32;;
48161;SDS011;33950;48.154;16.316;2023-01-31T01:26:49;10.05;;;3.72;;
48161;SDS011;33950;48.154;16.316;2023-01-31T01:29:35;12.10;;;4.93;;
48161;SDS011;33950;48.154;16.316;2023-01-31T01:32:23;11.65;;;5.13;;
48161;SDS011;33950;48.154;16.316;2023-01-31T01:35:10;9.90;;;4.38;;
48161;SDS011;33950;48.154;16.316;2023-01-31T01:37:56;11.77;;;4.88;;
48161;SDS011;33950;48.154;16.316;2023-01-31T01:40:42;17.35;;;4.78;;
48161;SDS011;33950;48.154;16.316;2023-01-31T01:43:41;8.43;;;4.25;;
48161;SDS011;33950;48.154;16.316;2023-01-31T01:46:30;15.82;;;4.75;;
48161;SDS011;33950;48.154;16.316;2023-01-31T01:49:24;8.03;;;3.87;;
48161;SDS011;33950;48.154;16.316;2023-01-31T01:52:15;15.18;;;4.03;;
48161;SDS011;33950;48.154;16.316;2023-01-31T01:55:04;8.07;;;3.72;;
48161;SDS011;33950;48.154;16.316;2023-01-31T01:57:59;6.93;;;3.90;;
48161;SDS011;33950;48.154;16.316;2023-01-31T02:00:48;10.65;;;4.15;;
48161;SDS011;33950;48.154;16.316;2023-01-31T02:03:35;6.78;;;3.65;;
48161;SDS011;33950;48.154;16.316;2023-01-31T02:06:24;9.30;;;4.05;;
48161;SDS011;33950;48.154;16.316;2023-01-31T02:09:11;11.98;;;4.22;;
48161;SDS011;33950;48.154;16.316;2023-01-31T02:12:17;9.45;;;4.03;;
48161;SDS011;33950;48.154;16.316;2023-01-31T02:15:04;9.13;;;4.55;;
48161;SDS011;33950;48.154;16.316;2023-01-31T02:17:51;12.63;;;5.07;;
48161;SDS011;33950;48.154;16.316;2023-01-31T02:24:14;9.57;;;4.85;;
48161;SDS011;33950;48.154;16.316;2023-01-31T02:27:30;10.30;;;4.15;;
48161;SDS011;33950;48.154;16.316;2023-01-31T02:34:01;9.25;;;4.43;;
48161;SDS011;33950;48.154;16.316;2023-01-31T02:36:56;7.93;;;3.90;;
48161;SDS011;33950;48.154;16.316;2023-01-31T02:39:55;11.65;;;4.50;;
48161;SDS011;33950;48.154;16.316;2023-01-31T02:42:47;10.57;;;4.32;;
48161;SDS011;33950;48.154;16.316;2023-01-31T02:45:40;8.05;;;3.70;;
48161;SDS011;33950;48.154;16.316;2023-01-31T02:48:33;9.40;;;3.92;;
48161;SDS011;33950;48.154;16.316;2023-01-31T02:51:28;10.57;;;3.70;;
48161;SDS011;33950;48.154;16.316;2023-01-31T02:54:20;9.68;;;3.83;;
48161;SDS011;33950;48.154;16.316;2023-01-31T02:57:29;15.05;;;4.07;;
48161;SDS011;33950;48.154;16.316;2023-01-31T03:00:15;8.15;;;3.30;;
48161;SDS011;33950;48.154;16.316;2023-01-31T03:03:04;8.80;;;3.95;;
48161;SDS011;33950;48.154;16.316;2023-01-31T03:09:23;11.00;;;4.50;;
48161;SDS011;33950;48.154;16.316;2023-01-31T03:12:25;8.43;;;3.45;;
48161;SDS011;33950;48.154;16.316;2023-01-31T03:15:23;11.95;;;4.10;;
48161;SDS011;33950;48.154;16.316;2023-01-31T03:18:40;8.15;;;3.53;;
48161;SDS011;33950;48.154;16.316;2023-01-31T03:21:32;9.27;;;3.38;;
48161;SDS011;33950;48.154;16.316;2023-01-31T03:24:23;12.23;;;4.10;;
48161;SDS011;33950;48.154;16.316;2023-01-31T03:27:13;8.80;;;4.00;;
48161;SDS011;33950;48.154;16.316;2023-01-31T03:30:01;12.30;;;4.68;;
48161;SDS011;33950;48.154;16.316;2023-01-31T03:32:54;7.40;;;3.95;;
48161;SDS011;33950;48.154;16.316;2023-01-31T03:35:45;11.30;;;4.50;;
48161;SDS011;33950;48.154;16.316;2023-01-31T03:38:36;11.25;;;4.60;;
48161;SDS011;33950;48.154;16.316;2023-01-31T03:41:33;9.70;;;3.45;;
48161;SDS011;33950;48.154;16.316;2023-01-31T03:44:30;11.73;;;3.67;;
48161;SDS011;33950;48.154;16.316;2023-01-31T03:47:24;7.30;;;3.58;;
48161;SDS011;33950;48.154;16.316;2023-01-31T03:50:13;12.05;;;3.22;;
48161;SDS011;33950;48.154;16.316;2023-01-31T03:53:04;16.85;;;3.75;;
48161;SDS011;33950;48.154;16.316;2023-01-31T03:55:55;5.35;;;2.95;;
48161;SDS011;33950;48.154;16.316;2023-01-31T03:58:46;7.97;;;3.67;;
48161;SDS011;33950;48.154;16.316;2023-01-31T04:01:36;14.25;;;3.33;;
48161;SDS011;33950;48.154;16.316;2023-01-31T04:04:27;4.68;;;2.30;;
48161;SDS011;33950;48.154;16.316;2023-01-31T04:07:17;9.07;;;3.00;;
48161;SDS011;33950;48.154;16.316;2023-01-31T04:10:03;7.85;;;3.30;;
48161;SDS011;33950;48.154;16.316;2023-01-31T04:12:53;16.85;;;3.00;;
48161;SDS011;33950;48.154;16.316;2023-01-31T04:15:41;9.40;;;2.83;;
48161;SDS011;33950;48.154;16.316;2023-01-31T04:18:27;6.18;;;2.67;;
48161;SDS011;33950;48.154;16.316;2023-01-31T04:21:13;10.18;;;3.13;;
48161;SDS011;33950;48.154;16.316;2023-01-31T04:23:59;11.30;;;2.50;;
48161;SDS011;33950;48.154;16.316;2023-01-31T04:26:45;8.15;;;2.88;;
48161;SDS011;33950;48.154;16.316;2023-01-31T04:29:32;9.23;;;3.15;;
48161;SDS011;33950;48.154;16.316;2023-01-31T04:32:19;9.85;;;3.08;;
48161;SDS011;33950;48.154;16.316;2023-01-31T04:35:05;9.77;;;3.22;;
48161;SDS011;33950;48.154;16.316;2023-01-31T04:37:52;8.13;;;3.35;;
48161;SDS011;33950;48.154;16.316;2023-01-31T04:40:38;9.98;;;3.65;;
48161;SDS011;33950;48.154;16.316;2023-01-31T04:43:24;8.13;;;3.00;;
48161;SDS011;33950;48.154;16.316;2023-01-31T04:46:10;7.95;;;3.80;;
48161;SDS011;33950;48.154;16.316;2023-01-31T04:48:58;12.45;;;3.45;;
48161;SDS011;33950;48.154;16.316;2023-01-31T04:51:44;7.53;;;3.13;;
48161;SDS011;33950;48.154;16.316;2023-01-31T04:54:30;11.70;;;3.30;;
48161;SDS011;33950;48.154;16.316;2023-01-31T04:57:17;7.30;;;3.35;;
48161;SDS011;33950;48.154;16.316;2023-01-31T05:00:03;11.30;;;3.03;;
48161;SDS011;33950;48.154;16.316;2023-01-31T05:02:50;5.95;;;2.40;;
48161;SDS011;33950;48.154;16.316;2023-01-31T05:05:41;6.90;;;2.63;;
48161;SDS011;33950;48.154;16.316;2023-01-31T05:08:27;6.75;;;2.63;;
48161;SDS011;33950;48.154;16.316;2023-01-31T05:11:13;10.20;;;3.20;;
48161;SDS011;33950;48.154;16.316;2023-01-31T05:13:59;8.20;;;3.20;;
48161;SDS011;33950;48.154;16.316;2023-01-31T05:16:46;5.10;;;1.80;;
48161;SDS011;33950;48.154;16.316;2023-01-31T05:19:32;8.23;;;2.60;;
48161;SDS011;33950;48.154;16.316;2023-01-31T05:22:19;6.75;;;2.22;;
48161;SDS011;33950;48.154;16.316;2023-01-31T05:25:07;9.18;;;1.73;;
48161;SDS011;33950;48.154;16.316;2023-01-31T05:27:53;7.60;;;2.38;;
48161;SDS011;33950;48.154;16.316;2023-01-31T05:30:39;4.82;;;2.03;;
48161;SDS011;33950;48.154;16.316;2023-01-31T05:33:25;6.45;;;2.08;;
48161;SDS011;33950;48.154;16.316;2023-01-31T05:36:12;8.65;;;2.10;;
48161;SDS011;33950;48.154;16.316;2023-01-31T05:39:00;6.88;;;2.55;;
48161;SDS011;33950;48.154;16.316;2023-01-31T05:41:46;6.05;;;2.15;;
48161;SDS011;33950;48.154;16.316;2023-01-31T05:44:32;9.40;;;2.55;;
48161;SDS011;33950;48.154;16.316;2023-01-31T05:47:18;7.20;;;1.67;;
48161;SDS011;33950;48.154;16.316;2023-01-31T05:50:04;9.20;;;2.15;;
48161;SDS011;33950;48.154;16.316;2023-01-31T05:52:48;6.80;;;2.03;;
48161;SDS011;33950;48.154;16.316;2023-01-31T05:55:37;8.25;;;3.00;;
48161;SDS011;33950;48.154;16.316;2023-01-31T05:58:23;6.68;;;2.53;;
48161;SDS011;33950;48.154;16.316;2023-01-31T06:01:09;12.35;;;2.63;;
48161;SDS011;33950;48.154;16.316;2023-01-31T06:03:55;13.35;;;2.78;;
48161;SDS011;33950;48.154;16.316;2023-01-31T06:06:41;6.47;;;2.28;;
48161;SDS011;33950;48.154;16.316;2023-01-31T06:09:29;11.70;;;2.63;;
48161;SDS011;33950;48.154;16.316;2023-01-31T06:12:16;7.25;;;2.15;;
48161;SDS011;33950;48.154;16.316;2023-01-31T06:15:02;6.38;;;2.40;;
48161;SDS011;33950;48.154;16.316;2023-01-31T06:17:51;11.75;;;2.83;;
48161;SDS011;33950;48.154;16.316;2023-01-31T06:20:37;11.23;;;3.22;;
48161;SDS011;33950;48.154;16.316;2023-01-31T06:23:23;7.35;;;3.17;;
48161;SDS011;33950;48.154;16.316;2023-01-31T06:26:10;9.55;;;2.35;;
48161;SDS011;33950;48.154;16.316;2023-01-31T06:28:57;13.35;;;3.05;;
48161;SDS011;33950;48.154;16.316;2023-01-31T06:31:44;13.05;;;3.22;;
48161;SDS011;33950;48.154;16.316;2023-01-31T06:34:30;6.10;;;2.55;;
48161;SDS011;33950;48.154;16.316;2023-01-31T06:37:16;11.07;;;3.85;;
48161;SDS011;33950;48.154;16.316;2023-01-31T06:40:03;16.42;;;3.55;;
48161;SDS011;33950;48.154;16.316;2023-01-31T06:42:49;9.65;;;3.17;;
48161;SDS011;33950;48.154;16.316;2023-01-31T06:45:37;18.10;;;3.42;;
48161;SDS011;33950;48.154;16.316;2023-01-31T06:48:23;12.70;;;3.25;;
48161;SDS011;33950;48.154;16.316;2023-01-31T06:51:09;8.82;;;3.22;;
48161;SDS011;33950;48.154;16.316;2023-01-31T06:53:55;7.05;;;2.97;;
48161;SDS011;33950;48.154;16.316;2023-01-31T06:56:41;15.20;;;4.00;;
48161;SDS011;33950;48.154;16.316;2023-01-31T06:59:27;8.10;;;3.40;;
48161;SDS011;33950;48.154;16.316;2023-01-31T07:02:15;18.23;;;4.25;;
48161;SDS011;33950;48.154;16.316;2023-01-31T07:05:01;15.00;;;3.40;;
48161;SDS011;33950;48.154;16.316;2023-01-31T07:07:47;12.05;;;4.18;;
48161;SDS011;33950;48.154;16.316;2023-01-31T07:10:34;9.40;;;2.90;;
48161;SDS011;33950;48.154;16.316;2023-01-31T07:13:20;5.65;;;3.13;;
48161;SDS011;33950;48.154;16.316;2023-01-31T07:16:06;8.25;;;3.58;;
48161;SDS011;33950;48.154;16.316;2023-01-31T07:18:54;8.20;;;2.85;;
48161;SDS011;33950;48.154;16.316;2023-01-31T07:21:40;7.15;;;1.92;;
48161;SDS011;33950;48.154;16.316;2023-01-31T07:24:26;9.70;;;2.95;;
48161;SDS011;33950;48.154;16.316;2023-01-31T07:27:12;6.68;;;2.17;;
48161;SDS011;33950;48.154;16.316;2023-01-31T07:29:59;4.90;;;2.10;;
48161;SDS011;33950;48.154;16.316;2023-01-31T07:32:45;9.82;;;2.60;;
48161;SDS011;33950;48.154;16.316;2023-01-31T07:35:32;8.27;;;2.55;;
48161;SDS011;33950;48.154;16.316;2023-01-31T07:38:18;9.25;;;2.63;;
48161;SDS011;33950;48.154;16.316;2023-01-31T07:41:04;8.60;;;2.63;;
48161;SDS011;33950;48.154;16.316;2023-01-31T07:43:52;7.18;;;2.30;;
48161;SDS011;33950;48.154;16.316;2023-01-31T07:46:38;6.28;;;2.22;;
48161;SDS011;33950;48.154;16.316;2023-01-31T07:49:25;15.27;;;2.42;;
48161;SDS011;33950;48.154;16.316;2023-01-31T07:52:12;10.40;;;2.05;;
48161;SDS011;33950;48.154;16.316;2023-01-31T07:54:58;10.13;;;2.65;;
48161;SDS011;33950;48.154;16.316;2023-01-31T07:57:44;12.98;;;1.77;;
48161;SDS011;33950;48.154;16.316;2023-01-31T08:00:30;11.07;;;1.98;;
48161;SDS011;33950;48.154;16.316;2023-01-31T08:03:35;6.57;;;1.60;;
48161;SDS011;33950;48.154;16.316;2023-01-31T08:06:21;4.82;;;1.40;;
48161;SDS011;33950;48.154;16.316;2023-01-31T08:09:09;4.80;;;1.10;;
48161;SDS011;33950;48.154;16.316;2023-01-31T08:11:55;9.15;;;1.48;;
48161;SDS011;33950;48.154;16.316;2023-01-31T08:14:41;7.80;;;1.90;;
48161;SDS011;33950;48.154;16.316;2023-01-31T08:17:28;7.95;;;1.63;;
48161;SDS011;33950;48.154;16.316;2023-01-31T08:20:14;5.10;;;2.00;;
48161;SDS011;33950;48.154;16.316;2023-01-31T08:23:00;6.35;;;1.02;;
48161;SDS011;33950;48.154;16.316;2023-01-31T08:25:48;4.30;;;1.00;;
48161;SDS011;33950;48.154;16.316;2023-01-31T08:28:34;8.30;;;1.45;;
48161;SDS011;33950;48.154;16.316;2023-01-31T08:31:21;5.82;;;1.33;;
48161;SDS011;33950;48.154;16.316;2023-01-31T08:34:09;5.53;;;1.65;;
48161;SDS011;33950;48.154;16.316;2023-01-31T08:36:55;7.50;;;1.17;;
48161;SDS011;33950;48.154;16.316;2023-01-31T08:39:41;8.07;;;1.42;;
48161;SDS011;33950;48.154;16.316;2023-01-31T08:42:29;8.38;;;1.35;;
48161;SDS011;33950;48.154;16.316;2023-01-31T08:45:16;4.47;;;0.90;;
48161;SDS011;33950;48.154;16.316;2023-01-31T08:48:02;9.50;;;1.38;;
48161;SDS011;33950;48.154;16.316;2023-01-31T08:50:48;6.03;;;1.48;;
48161;SDS011;33950;48.154;16.316;2023-01-31T08:53:36;8.73;;;2.03;;
48161;SDS011;33950;48.154;16.316;2023-01-31T08:56:23;7.55;;;2.50;;
48161;SDS011;33950;48.154;16.316;2023-01-31T08:59:13;16.77;;;2.92;;
48161;SDS011;33950;48.154;16.316;2023-01-31T09:02:00;9.18;;;3.42;;
48161;SDS011;33950;48.154;16.316;2023-01-31T09:04:46;13.23;;;3.70;;
48161;SDS011;33950;48.154;16.316;2023-01-31T09:07:32;14.80;;;4.03;;
48161;SDS011;33950;48.154;16.316;2023-01-31T09:10:18;13.13;;;4.00;;
48161;SDS011;33950;48.154;16.316;2023-01-31T09:13:05;12.60;;;3.75;;
48161;SDS011;33950;48.154;16.316;2023-01-31T09:15:57;12.18;;;3.88;;
48161;SDS011;33950;48.154;16.316;2023-01-31T09:18:44;17.23;;;5.55;;
48161;SDS011;33950;48.154;16.316;2023-01-31T09:21:30;14.88;;;4.00;;
48161;SDS011;33950;48.154;16.316;2023-01-31T09:24:16;16.92;;;4.15;;
48161;SDS011;33950;48.154;16.316;2023-01-31T09:27:02;9.57;;;3.53;;
48161;SDS011;33950;48.154;16.316;2023-01-31T09:29:49;11.45;;;4.07;;
48161;SDS011;33950;48.154;16.316;2023-01-31T09:32:37;11.52;;;3.47;;
48161;SDS011;33950;48.154;16.316;2023-01-31T09:35:25;11.43;;;2.83;;
48161;SDS011;33950;48.154;16.316;2023-01-31T09:38:12;11.00;;;3.63;;
48161;SDS011;33950;48.154;16.316;2023-01-31T09:41:00;11.80;;;3.35;;
48161;SDS011;33950;48.154;16.316;2023-01-31T09:43:48;13.40;;;3.55;;
48161;SDS011;33950;48.154;16.316;2023-01-31T09:46:39;12.80;;;2.70;;
48161;SDS011;33950;48.154;16.316;2023-01-31T09:49:30;5.18;;;2.67;;
48161;SDS011;33950;48.154;16.316;2023-01-31T09:52:21;10.20;;;2.70;;
48161;SDS011;33950;48.154;16.316;2023-01-31T09:55:09;13.75;;;3.33;;
48161;SDS011;33950;48.154;16.316;2023-01-31T09:58:02;13.85;;;3.10;;
48161;SDS011;33950;48.154;16.316;2023-01-31T10:00:55;11.30;;;2.22;;
48161;SDS011;33950;48.154;16.316;2023-01-31T10:03:50;8.90;;;2.42;;
48161;SDS011;33950;48.154;16.316;2023-01-31T10:06:46;13.15;;;2.78;;
48161;SDS011;33950;48.154;16.316;2023-01-31T10:09:36;11.55;;;2.95;;
48161;SDS011;33950;48.154;16.316;2023-01-31T10:12:28;10.25;;;2.38;;
48161;SDS011;33950;48.154;16.316;2023-01-31T10:15:21;7.03;;;2.00;;
48161;SDS011;33950;48.154;16.316;2023-01-31T10:18:15;2.72;;;1.40;;
48161;SDS011;33950;48.154;16.316;2023-01-31T10:21:05;3.72;;;1.92;;
48161;SDS011;33950;48.154;16.316;2023-01-31T10:23:57;6.88;;;2.13;;
48161;SDS011;33950;48.154;16.316;2023-01-31T10:26:48;2.92;;;1.75;;
48161;SDS011;33950;48.154;16.316;2023-01-31T10:29:36;9.35;;;1.90;;
48161;SDS011;33950;48.154;16.316;2023-01-31T10:32:27;10.02;;;2.30;;
48161;SDS011;33950;48.154;16.316;2023-01-31T10:38:06;6.10;;;2.15;;
48161;SDS011;33950;48.154;16.316;2023-01-31T10:41:04;9.13;;;1.88;;
48161;SDS011;33950;48.154;16.316;2023-01-31T10:43:58;9.07;;;2.00;;
48161;SDS011;33950;48.154;16.316;2023-01-31T10:46:48;5.78;;;1.88;;
48161;SDS011;33950;48.154;16.316;2023-01-31T10:49:35;6.30;;;2.20;;
48161;SDS011;33950;48.154;16.316;2023-01-31T10:52:26;9.95;;;2.00;;
48161;SDS011;33950;48.154;16.316;2023-01-31T10:55:27;6.38;;;2.22;;
48161;SDS011;33950;48.154;16.316;2023-01-31T10:58:33;10.40;;;2.22;;
48161;SDS011;33950;48.154;16.316;2023-01-31T11:01:20;7.00;;;1.98;;
48161;SDS011;33950;48.154;16.316;2023-01-31T11:04:13;10.00;;;2.00;;
48161;SDS011;33950;48.154;16.316;2023-01-31T11:07:08;12.13;;;2.35;;
48161;SDS011;33950;48.154;16.316;2023-01-31T11:09:54;5.00;;;1.33;;
48161;SDS011;33950;48.154;16.316;2023-01-31T11:12:51;5.03;;;1.75;;
48161;SDS011;33950;48.154;16.316;2023-01-31T11:15:39;14.70;;;2.20;;
48161;SDS011;33950;48.154;16.316;2023-01-31T11:18:30;4.45;;;1.52;;
48161;SDS011;33950;48.154;16.316;2023-01-31T11:21:19;5.80;;;1.52;;
48161;SDS011;33950;48.154;16.316;2023-01-31T11:24:14;4.85;;;1.40;;
48161;SDS011;33950;48.154;16.316;2023-01-31T11:27:03;5.20;;;1.60;;
48161;SDS011;33950;48.154;16.316;2023-01-31T11:29:51;1.75;;;1.25;;
48161;SDS011;33950;48.154;16.316;2023-01-31T11:32:41;7.95;;;1.90;;
48161;SDS011;33950;48.154;16.316;2023-01-31T11:35:29;12.68;;;2.33;;
48161;SDS011;33950;48.154;16.316;2023-01-31T11:38:18;8.07;;;1.85;;
48161;SDS011;33950;48.154;16.316;2023-01-31T11:41:26;4.35;;;1.65;;
48161;SDS011;33950;48.154;16.316;2023-01-31T11:44:18;17.55;;;2.35;;
48161;SDS011;33950;48.154;16.316;2023-01-31T11:47:05;12.70;;;2.33;;
48161;SDS011;33950;48.154;16.316;2023-01-31T11:49:58;6.95;;;2.00;;
48161;SDS011;33950;48.154;16.316;2023-01-31T11:52:46;9.30;;;2.20;;
48161;SDS011;33950;48.154;16.316;2023-01-31T11:55:39;9.45;;;2.67;;
48161;SDS011;33950;48.154;16.316;2023-01-31T11:58:29;12.25;;;2.50;;
48161;SDS011;33950;48.154;16.316;2023-01-31T12:01:21;9.95;;;2.58;;
48161;SDS011;33950;48.154;16.316;2023-01-31T12:04:13;4.57;;;1.77;;
48161;SDS011;33950;48.154;16.316;2023-01-31T12:07:04;14.38;;;3.13;;
48161;SDS011;33950;48.154;16.316;2023-01-31T12:10:07;8.10;;;2.67;;
48161;SDS011;33950;48.154;16.316;2023-01-31T12:13:15;19.63;;;2.83;;
48161;SDS011;33950;48.154;16.316;2023-01-31T12:16:03;7.28;;;2.85;;
48161;SDS011;33950;48.154;16.316;2023-01-31T12:18:54;12.68;;;2.78;;
48161;SDS011;33950;48.154;16.316;2023-01-31T12:21:59;7.40;;;2.90;;
48161;SDS011;33950;48.154;16.316;2023-01-31T12:25:00;12.80;;;2.75;;
48161;SDS011;33950;48.154;16.316;2023-01-31T12:27:57;10.68;;;2.40;;
48161;SDS011;33950;48.154;16.316;2023-01-31T12:30:56;13.23;;;3.10;;
48161;SDS011;33950;48.154;16.316;2023-01-31T12:33:56;9.23;;;2.65;;
48161;SDS011;33950;48.154;16.316;2023-01-31T12:37:02;9.88;;;2.90;;
48161;SDS011;33950;48.154;16.316;2023-01-31T12:43:00;9.85;;;2.25;;
48161;SDS011;33950;48.154;16.316;2023-01-31T12:45:53;7.72;;;2.75;;
48161;SDS011;33950;48.154;16.316;2023-01-31T12:48:56;9.30;;;2.72;;
48161;SDS011;33950;48.154;16.316;2023-01-31T12:52:01;10.82;;;2.70;;
48161;SDS011;33950;48.154;16.316;2023-01-31T12:55:02;6.78;;;2.47;;
48161;SDS011;33950;48.154;16.316;2023-01-31T12:57:59;8.05;;;2.22;;
48161;SDS011;33950;48.154;16.316;2023-01-31T13:01:00;16.48;;;3.67;;
48161;SDS011;33950;48.154;16.316;2023-01-31T13:03:54;8.10;;;2.20;;
48161;SDS011;33950;48.154;16.316;2023-01-31T13:06:49;13.02;;;3.22;;
48161;SDS011;33950;48.154;16.316;2023-01-31T13:09:38;14.73;;;4.03;;
48161;SDS011;33950;48.154;16.316;2023-01-31T13:12:26;7.20;;;2.67;;
48161;SDS011;33950;48.154;16.316;2023-01-31T13:15:16;6.50;;;2.00;;
48161;SDS011;33950;48.154;16.316;2023-01-31T13:18:11;12.60;;;2.72;;
48161;SDS011;33950;48.154;16.316;2023-01-31T13:20:59;5.75;;;1.98;;
48161;SDS011;33950;48.154;16.316;2023-01-31T13:23:49;5.78;;;1.80;;
48161;SDS011;33950;48.154;16.316;2023-01-31T13:26:39;9.90;;;3.10;;
48161;SDS011;33950;48.154;16.316;2023-01-31T13:29:32;8.13;;;2.42;;
48161;SDS011;33950;48.154;16.316;2023-01-31T13:32:25;5.18;;;1.80;;
48161;SDS011;33950;48.154;16.316;2023-01-31T13:35:15;6.28;;;2.28;;
48161;SDS011;33950;48.154;16.316;2023-01-31T13:38:07;9.88;;;1.60;;
48161;SDS011;33950;48.154;16.316;2023-01-31T13:43:45;6.70;;;1.60;;
48161;SDS011;33950;48.154;16.316;2023-01-31T13:46:33;7.80;;;2.25;;
48161;SDS011;33950;48.154;16.316;2023-01-31T13:49:24;9.85;;;1.95;;
48161;SDS011;33950;48.154;16.316;2023-01-31T13:52:14;17.60;;;2.30;;
48161;SDS011;33950;48.154;16.316;2023-01-31T13:55:06;8.90;;;1.67;;
48161;SDS011;33950;48.154;16.316;2023-01-31T13:57:57;6.22;;;1.40;;
48161;SDS011;33950;48.154;16.316;2023-01-31T14:00:49;10.18;;;2.13;;
48161;SDS011;33950;48.154;16.316;2023-01-31T14:07:14;6.63;;;1.52;;
48161;SDS011;33950;48.154;16.316;2023-01-31T14:13:23;9.75;;;1.60;;
48161;SDS011;33950;48.154;16.316;2023-01-31T14:29:34;8.35;;;1.20;;
48161;SDS011;33950;48.154;16.316;2023-01-31T14:32:30;4.47;;;1.17;;
48161;SDS011;33950;48.154;16.316;2023-01-31T14:35:23;11.95;;;1.60;;
48161;SDS011;33950;48.154;16.316;2023-01-31T14:38:22;8.55;;;1.98;;
48161;SDS011;33950;48.154;16.316;2023-01-31T14:41:22;8.90;;;1.33;;
48161;SDS011;33950;48.154;16.316;2023-01-31T14:44:25;7.68;;;2.03;;
48161;SDS011;33950;48.154;16.316;2023-01-31T14:47:29;4.18;;;1.08;;
48161;SDS011;33950;48.154;16.316;2023-01-31T14:50:31;7.30;;;1.45;;
48161;SDS011;33950;48.154;16.316;2023-01-31T14:53:53;12.00;;;2.05;;
48161;SDS011;33950;48.154;16.316;2023-01-31T14:56:59;17.50;;;2.65;;
48161;SDS011;33950;48.154;16.316;2023-01-31T14:59:59;10.93;;;1.63;;
48161;SDS011;33950;48.154;16.316;2023-01-31T15:02:48;19.27;;;2.05;;
48161;SDS011;33950;48.154;16.316;2023-01-31T15:05:39;3.72;;;1.20;;
48161;SDS011;33950;48.154;16.316;2023-01-31T15:08:29;6.80;;;2.30;;
48161;SDS011;33950;48.154;16.316;2023-01-31T15:11:38;11.45;;;1.80;;
48161;SDS011;33950;48.154;16.316;2023-01-31T15:14:28;11.90;;;2.63;;
48161;SDS011;33950;48.154;16.316;2023-01-31T15:17:21;16.42;;;2.45;;
48161;SDS011;33950;48.154;16.316;2023-01-31T15:20:13;20.35;;;2.42;;
48161;SDS011;33950;48.154;16.316;2023-01-31T15:23:10;7.85;;;1.90;;
48161;SDS011;33950;48.154;16.316;2023-01-31T15:26:07;6.75;;;1.52;;
48161;SDS011;33950;48.154;16.316;2023-01-31T15:28:55;11.85;;;1.67;;
48161;SDS011;33950;48.154;16.316;2023-01-31T15:31:43;14.90;;;2.13;;
48161;SDS011;33950;48.154;16.316;2023-01-31T15:34:33;8.90;;;1.70;;
48161;SDS011;33950;48.154;16.316;2023-01-31T15:37:27;7.88;;;1.80;;
48161;SDS011;33950;48.154;16.316;2023-01-31T15:40:17;7.85;;;1.92;;
48161;SDS011;33950;48.154;16.316;2023-01-31T15:43:15;13.60;;;2.63;;
48161;SDS011;33950;48.154;16.316;2023-01-31T15:46:18;9.02;;;2.13;;
48161;SDS011;33950;48.154;16.316;2023-01-31T15:49:20;7.15;;;3.08;;
48161;SDS011;33950;48.154;16.316;2023-01-31T15:52:10;8.05;;;2.78;;
48161;SDS011;33950;48.154;16.316;2023-01-31T15:57:51;11.77;;;2.17;;
48161;SDS011;33950;48.154;16.316;2023-01-31T16:00:42;11.73;;;2.35;;
48161;SDS011;33950;48.154;16.316;2023-01-31T16:03:29;14.98;;;2.25;;
48161;SDS011;33950;48.154;16.316;2023-01-31T16:06:22;9.27;;;2.08;;
48161;SDS011;33950;48.154;16.316;2023-01-31T16:09:21;10.35;;;2.90;;
48161;SDS011;33950;48.154;16.316;2023-01-31T16:12:11;11.63;;;2.30;;
48161;SDS011;33950;48.154;16.316;2023-01-31T16:15:04;10.23;;;2.22;;
48161;SDS011;33950;48.154;16.316;2023-01-31T16:17:53;12.50;;;2.42;;
48161;SDS011;33950;48.154;16.316;2023-01-31T16:20:43;8.90;;;1.92;;
48161;SDS011;33950;48.154;16.316;2023-01-31T16:23:35;11.45;;;2.05;;
48161;SDS011;33950;48.154;16.316;2023-01-31T16:26:22;9.55;;;2.15;;
48161;SDS011;33950;48.154;16.316;2023-01-31T16:29:12;6.07;;;1.88;;
48161;SDS011;33950;48.154;16.316;2023-01-31T16:32:02;9.27;;;1.77;;
48161;SDS011;33950;48.154;16.316;2023-01-31T16:34:59;13.98;;;2.65;;
48161;SDS011;33950;48.154;16.316;2023-01-31T16:37:47;14.25;;;1.80;;
48161;SDS011;33950;48.154;16.316;2023-01-31T16:40:48;14.93;;;3.35;;
48161;SDS011;33950;48.154;16.316;2023-01-31T16:43:37;7.45;;;1.90;;
48161;SDS011;33950;48.154;16.316;2023-01-31T16:46:34;14.55;;;2.53;;
48161;SDS011;33950;48.154;16.316;2023-01-31T16:49:22;7.38;;;1.83;;
48161;SDS011;33950;48.154;16.316;2023-01-31T16:52:14;9.98;;;2.25;;
48161;SDS011;33950;48.154;16.316;2023-01-31T16:55:10;11.30;;;2.22;;
48161;SDS011;33950;48.154;16.316;2023-01-31T16:57:59;9.93;;;2.60;;
48161;SDS011;33950;48.154;16.316;2023-01-31T17:00:46;8.07;;;1.88;;
48161;SDS011;33950;48.154;16.316;2023-01-31T17:03:33;11.73;;;2.15;;
48161;SDS011;33950;48.154;16.316;2023-01-31T17:06:19;9.90;;;1.70;;
48161;SDS011;33950;48.154;16.316;2023-01-31T17:09:08;6.13;;;1.55;;
48161;SDS011;33950;48.154;16.316;2023-01-31T17:12:00;2.53;;;0.98;;
48161;SDS011;33950;48.154;16.316;2023-01-31T17:14:48;7.50;;;2.45;;
48161;SDS011;33950;48.154;16.316;2023-01-31T17:18:12;6.80;;;1.95;;
48161;SDS011;33950;48.154;16.316;2023-01-31T17:21:01;16.73;;;2.20;;
48161;SDS011;33950;48.154;16.316;2023-01-31T17:26:56;15.65;;;2.28;;
48161;SDS011;33950;48.154;16.316;2023-01-31T17:29:42;8.25;;;1.50;;